sensor_id;sensor_type;location;lat;lon;timestamp;temperature;humidity
48876;DHT22;34689;51.644;5.618;2022-07-04T00:00:28;17.00;90.20
48876;DHT22;34689;51.644;5.618;2022-07-04T00:02:54;17.00;90.10
48876;DHT22;34689;51.644;5.618;2022-07-04T00:05:20;17.00;90.20
48876;DHT22;34689;51.644;5.618;2022-07-04T00:07:48;16.90;90.20
48876;DHT22;34689;51.644;5.618;2022-07-04T00:10:16;16.90;90.30
48876;DHT22;34689;51.644;5.618;2022-07-04T00:12:44;16.90;90.40
48876;DHT22;34689;51.644;5.618;2022-07-04T00:15:10;16.90;90.40
48876;DHT22;34689;51.644;5.618;2022-07-04T00:17:37;16.90;90.50
48876;DHT22;34689;51.644;5.618;2022-07-04T00:20:04;16.80;90.50
48876;DHT22;34689;51.644;5.618;2022-07-04T00:22:32;16.80;90.60
48876;DHT22;34689;51.644;5.618;2022-07-04T00:24:58;16.80;90.70
48876;DHT22;34689;51.644;5.618;2022-07-04T00:27:23;16.70;90.70
48876;DHT22;34689;51.644;5.618;2022-07-04T00:29:50;16.70;90.80
48876;DHT22;34689;51.644;5.618;2022-07-04T00:32:16;16.70;90.80
48876;DHT22;34689;51.644;5.618;2022-07-04T00:34:42;16.60;90.80
48876;DHT22;34689;51.644;5.618;2022-07-04T00:37:07;16.60;90.90
48876;DHT22;34689;51.644;5.618;2022-07-04T00:39:33;16.60;91.00
48876;DHT22;34689;51.644;5.618;2022-07-04T00:41:59;16.50;91.00
48876;DHT22;34689;51.644;5.618;2022-07-04T00:44:25;16.50;91.10
48876;DHT22;34689;51.644;5.618;2022-07-04T00:46:50;16.50;91.10
48876;DHT22;34689;51.644;5.618;2022-07-04T00:49:17;16.50;91.10
48876;DHT22;34689;51.644;5.618;2022-07-04T00:51:44;16.50;91.20
48876;DHT22;34689;51.644;5.618;2022-07-04T00:54:15;16.50;91.20
48876;DHT22;34689;51.644;5.618;2022-07-04T00:56:42;16.40;91.20
48876;DHT22;34689;51.644;5.618;2022-07-04T00:59:09;16.40;91.20
48876;DHT22;34689;51.644;5.618;2022-07-04T01:01:35;16.40;91.30
48876;DHT22;34689;51.644;5.618;2022-07-04T01:04:03;16.30;91.30
48876;DHT22;34689;51.644;5.618;2022-07-04T01:06:30;16.30;91.40
48876;DHT22;34689;51.644;5.618;2022-07-04T01:08:56;16.30;91.40
48876;DHT22;34689;51.644;5.618;2022-07-04T01:11:22;16.30;91.40
48876;DHT22;34689;51.644;5.618;2022-07-04T01:13:50;16.30;91.40
48876;DHT22;34689;51.644;5.618;2022-07-04T01:16:16;16.30;91.50
48876;DHT22;34689;51.644;5.618;2022-07-04T01:18:42;16.20;91.50
48876;DHT22;34689;51.644;5.618;2022-07-04T01:21:10;16.20;91.50
48876;DHT22;34689;51.644;5.618;2022-07-04T01:23:42;16.20;91.50
48876;DHT22;34689;51.644;5.618;2022-07-04T01:26:08;16.20;91.60
48876;DHT22;34689;51.644;5.618;2022-07-04T01:28:36;16.10;91.60
48876;DHT22;34689;51.644;5.618;2022-07-04T01:31:04;16.10;91.60
48876;DHT22;34689;51.644;5.618;2022-07-04T01:33:31;16.10;91.60
48876;DHT22;34689;51.644;5.618;2022-07-04T01:35:57;16.10;91.70
48876;DHT22;34689;51.644;5.618;2022-07-04T01:38:23;16.10;91.70
48876;DHT22;34689;51.644;5.618;2022-07-04T01:40:49;16.00;91.80
48876;DHT22;34689;51.644;5.618;2022-07-04T01:43:14;16.00;91.80
48876;DHT22;34689;51.644;5.618;2022-07-04T01:45:40;16.00;91.80
48876;DHT22;34689;51.644;5.618;2022-07-04T01:48:07;15.90;91.80
48876;DHT22;34689;51.644;5.618;2022-07-04T01:50:34;15.90;91.90
48876;DHT22;34689;51.644;5.618;2022-07-04T01:53:00;15.90;92.00
48876;DHT22;34689;51.644;5.618;2022-07-04T01:55:26;15.80;92.00
48876;DHT22;34689;51.644;5.618;2022-07-04T01:57:51;15.80;92.00
48876;DHT22;34689;51.644;5.618;2022-07-04T02:00:20;15.80;92.10
48876;DHT22;34689;51.644;5.618;2022-07-04T02:03:04;15.70;92.10
48876;DHT22;34689;51.644;5.618;2022-07-04T02:05:32;15.70;92.20
48876;DHT22;34689;51.644;5.618;2022-07-04T02:07:58;15.60;92.20
48876;DHT22;34689;51.644;5.618;2022-07-04T02:10:24;15.60;92.20
48876;DHT22;34689;51.644;5.618;2022-07-04T02:12:50;15.60;92.30
48876;DHT22;34689;51.644;5.618;2022-07-04T02:15:37;15.60;92.30
48876;DHT22;34689;51.644;5.618;2022-07-04T02:18:07;15.60;92.40
48876;DHT22;34689;51.644;5.618;2022-07-04T02:20:34;15.60;92.40
48876;DHT22;34689;51.644;5.618;2022-07-04T02:23:00;15.60;92.40
48876;DHT22;34689;51.644;5.618;2022-07-04T02:25:26;15.60;92.40
48876;DHT22;34689;51.644;5.618;2022-07-04T02:27:51;15.50;92.50
48876;DHT22;34689;51.644;5.618;2022-07-04T02:30:17;15.50;92.60
48876;DHT22;34689;51.644;5.618;2022-07-04T02:32:43;15.50;92.60
48876;DHT22;34689;51.644;5.618;2022-07-04T02:35:09;15.60;92.60
48876;DHT22;34689;51.644;5.618;2022-07-04T02:37:35;15.50;92.50
48876;DHT22;34689;51.644;5.618;2022-07-04T02:40:02;15.50;92.50
48876;DHT22;34689;51.644;5.618;2022-07-04T02:42:29;15.50;92.50
48876;DHT22;34689;51.644;5.618;2022-07-04T02:44:56;15.50;92.90
48876;DHT22;34689;51.644;5.618;2022-07-04T02:47:21;15.40;92.60
48876;DHT22;34689;51.644;5.618;2022-07-04T02:49:47;15.40;92.60
48876;DHT22;34689;51.644;5.618;2022-07-04T02:52:13;15.40;92.60
48876;DHT22;34689;51.644;5.618;2022-07-04T02:54:41;15.40;92.70
48876;DHT22;34689;51.644;5.618;2022-07-04T02:57:08;15.40;92.70
48876;DHT22;34689;51.644;5.618;2022-07-04T02:59:34;15.30;92.70
48876;DHT22;34689;51.644;5.618;2022-07-04T03:02:00;15.30;92.70
48876;DHT22;34689;51.644;5.618;2022-07-04T03:04:26;15.30;92.70
48876;DHT22;34689;51.644;5.618;2022-07-04T03:06:51;15.30;92.70
48876;DHT22;34689;51.644;5.618;2022-07-04T03:09:17;15.30;92.80
48876;DHT22;34689;51.644;5.618;2022-07-04T03:11:44;15.20;92.80
48876;DHT22;34689;51.644;5.618;2022-07-04T03:14:10;15.20;92.80
48876;DHT22;34689;51.644;5.618;2022-07-04T03:16:36;15.20;92.90
48876;DHT22;34689;51.644;5.618;2022-07-04T03:19:02;15.20;92.90
48876;DHT22;34689;51.644;5.618;2022-07-04T03:21:28;15.20;93.00
48876;DHT22;34689;51.644;5.618;2022-07-04T03:23:56;15.20;93.00
48876;DHT22;34689;51.644;5.618;2022-07-04T03:26:28;15.20;93.00
48876;DHT22;34689;51.644;5.618;2022-07-04T03:28:55;15.10;93.00
48876;DHT22;34689;51.644;5.618;2022-07-04T03:31:21;15.10;93.00
48876;DHT22;34689;51.644;5.618;2022-07-04T03:33:47;15.10;93.10
48876;DHT22;34689;51.644;5.618;2022-07-04T03:36:13;15.10;93.10
48876;DHT22;34689;51.644;5.618;2022-07-04T03:38:41;15.10;93.10
48876;DHT22;34689;51.644;5.618;2022-07-04T03:41:09;15.10;93.20
48876;DHT22;34689;51.644;5.618;2022-07-04T03:43:35;15.00;93.20
48876;DHT22;34689;51.644;5.618;2022-07-04T03:46:01;15.00;93.20
48876;DHT22;34689;51.644;5.618;2022-07-04T03:48:29;15.00;93.20
48876;DHT22;34689;51.644;5.618;2022-07-04T03:50:55;15.10;93.20
48876;DHT22;34689;51.644;5.618;2022-07-04T03:53:21;15.10;93.20
48876;DHT22;34689;51.644;5.618;2022-07-04T03:55:47;15.00;93.20
48876;DHT22;34689;51.644;5.618;2022-07-04T03:58:13;15.00;93.30
48876;DHT22;34689;51.644;5.618;2022-07-04T04:00:38;15.00;93.30
48876;DHT22;34689;51.644;5.618;2022-07-04T04:03:04;15.00;93.30
48876;DHT22;34689;51.644;5.618;2022-07-04T04:05:50;15.00;93.40
48876;DHT22;34689;51.644;5.618;2022-07-04T04:08:15;15.00;93.40
48876;DHT22;34689;51.644;5.618;2022-07-04T04:10:41;15.00;93.40
48876;DHT22;34689;51.644;5.618;2022-07-04T04:13:10;15.00;93.40
48876;DHT22;34689;51.644;5.618;2022-07-04T04:15:36;15.00;93.40
48876;DHT22;34689;51.644;5.618;2022-07-04T04:18:01;15.00;93.50
48876;DHT22;34689;51.644;5.618;2022-07-04T04:20:27;15.00;93.50
48876;DHT22;34689;51.644;5.618;2022-07-04T04:22:52;15.00;93.50
48876;DHT22;34689;51.644;5.618;2022-07-04T04:25:18;15.00;93.50
48876;DHT22;34689;51.644;5.618;2022-07-04T04:27:44;15.00;93.60
48876;DHT22;34689;51.644;5.618;2022-07-04T04:30:10;15.10;93.60
48876;DHT22;34689;51.644;5.618;2022-07-04T04:32:36;15.10;93.60
48876;DHT22;34689;51.644;5.618;2022-07-04T04:35:02;15.10;93.60
48876;DHT22;34689;51.644;5.618;2022-07-04T04:37:27;15.10;93.70
48876;DHT22;34689;51.644;5.618;2022-07-04T04:39:53;15.10;93.70
48876;DHT22;34689;51.644;5.618;2022-07-04T04:42:19;15.20;93.70
48876;DHT22;34689;51.644;5.618;2022-07-04T04:44:44;15.20;93.70
48876;DHT22;34689;51.644;5.618;2022-07-04T04:47:10;15.20;93.70
48876;DHT22;34689;51.644;5.618;2022-07-04T04:49:38;15.30;93.60
48876;DHT22;34689;51.644;5.618;2022-07-04T04:52:04;15.30;93.60
48876;DHT22;34689;51.644;5.618;2022-07-04T04:54:33;15.30;93.70
48876;DHT22;34689;51.644;5.618;2022-07-04T04:56:59;15.30;93.70
48876;DHT22;34689;51.644;5.618;2022-07-04T04:59:26;15.30;93.80
48876;DHT22;34689;51.644;5.618;2022-07-04T05:01:51;15.40;93.80
48876;DHT22;34689;51.644;5.618;2022-07-04T05:04:17;15.30;93.80
48876;DHT22;34689;51.644;5.618;2022-07-04T05:06:43;15.30;93.80
48876;DHT22;34689;51.644;5.618;2022-07-04T05:09:09;15.40;93.90
48876;DHT22;34689;51.644;5.618;2022-07-04T05:11:35;15.40;93.90
48876;DHT22;34689;51.644;5.618;2022-07-04T05:14:00;15.40;93.90
48876;DHT22;34689;51.644;5.618;2022-07-04T05:16:27;15.50;93.90
48876;DHT22;34689;51.644;5.618;2022-07-04T05:18:52;15.50;94.00
48876;DHT22;34689;51.644;5.618;2022-07-04T05:21:20;15.60;94.00
48876;DHT22;34689;51.644;5.618;2022-07-04T05:23:46;15.60;94.10
48876;DHT22;34689;51.644;5.618;2022-07-04T05:26:12;15.60;94.10
48876;DHT22;34689;51.644;5.618;2022-07-04T05:28:37;15.60;94.20
48876;DHT22;34689;51.644;5.618;2022-07-04T05:31:06;15.70;94.20
48876;DHT22;34689;51.644;5.618;2022-07-04T05:33:32;15.70;94.30
48876;DHT22;34689;51.644;5.618;2022-07-04T05:35:57;15.80;94.30
48876;DHT22;34689;51.644;5.618;2022-07-04T05:38:23;15.80;94.30
48876;DHT22;34689;51.644;5.618;2022-07-04T05:40:49;15.80;94.30
48876;DHT22;34689;51.644;5.618;2022-07-04T05:43:14;15.90;94.30
48876;DHT22;34689;51.644;5.618;2022-07-04T05:45:40;15.90;94.40
48876;DHT22;34689;51.644;5.618;2022-07-04T05:48:06;15.90;94.40
48876;DHT22;34689;51.644;5.618;2022-07-04T05:50:32;16.00;94.50
48876;DHT22;34689;51.644;5.618;2022-07-04T05:52:57;16.00;94.50
48876;DHT22;34689;51.644;5.618;2022-07-04T05:55:23;16.00;94.50
48876;DHT22;34689;51.644;5.618;2022-07-04T05:57:51;16.00;94.60
48876;DHT22;34689;51.644;5.618;2022-07-04T06:00:18;16.10;94.60
48876;DHT22;34689;51.644;5.618;2022-07-04T06:02:44;16.10;94.60
48876;DHT22;34689;51.644;5.618;2022-07-04T06:05:10;16.10;94.60
48876;DHT22;34689;51.644;5.618;2022-07-04T06:07:35;16.20;94.60
48876;DHT22;34689;51.644;5.618;2022-07-04T06:10:01;16.20;94.70
48876;DHT22;34689;51.644;5.618;2022-07-04T06:12:27;16.30;94.80
48876;DHT22;34689;51.644;5.618;2022-07-04T06:14:52;16.40;94.80
48876;DHT22;34689;51.644;5.618;2022-07-04T06:17:18;16.40;94.80
48876;DHT22;34689;51.644;5.618;2022-07-04T06:19:44;16.40;94.80
48876;DHT22;34689;51.644;5.618;2022-07-04T06:22:10;16.40;94.90
48876;DHT22;34689;51.644;5.618;2022-07-04T06:24:36;16.40;95.00
48876;DHT22;34689;51.644;5.618;2022-07-04T06:27:01;16.40;95.00
48876;DHT22;34689;51.644;5.618;2022-07-04T06:29:28;16.50;95.10
48876;DHT22;34689;51.644;5.618;2022-07-04T06:31:54;16.50;95.00
48876;DHT22;34689;51.644;5.618;2022-07-04T06:34:20;16.50;95.00
48876;DHT22;34689;51.644;5.618;2022-07-04T06:37:06;16.50;95.10
48876;DHT22;34689;51.644;5.618;2022-07-04T06:39:35;16.60;95.00
48876;DHT22;34689;51.644;5.618;2022-07-04T06:42:00;16.70;95.00
48876;DHT22;34689;51.644;5.618;2022-07-04T06:44:26;16.70;95.10
48876;DHT22;34689;51.644;5.618;2022-07-04T06:46:52;16.80;95.10
48876;DHT22;34689;51.644;5.618;2022-07-04T06:49:17;16.80;95.00
48876;DHT22;34689;51.644;5.618;2022-07-04T06:51:43;16.90;95.00
48876;DHT22;34689;51.644;5.618;2022-07-04T06:54:09;17.00;95.00
48876;DHT22;34689;51.644;5.618;2022-07-04T06:56:34;17.10;95.00
48876;DHT22;34689;51.644;5.618;2022-07-04T06:59:02;17.20;95.00
48876;DHT22;34689;51.644;5.618;2022-07-04T07:01:30;17.20;95.00
48876;DHT22;34689;51.644;5.618;2022-07-04T07:03:58;17.30;95.00
48876;DHT22;34689;51.644;5.618;2022-07-04T07:06:26;17.30;95.00
48876;DHT22;34689;51.644;5.618;2022-07-04T07:08:51;17.30;94.90
48876;DHT22;34689;51.644;5.618;2022-07-04T07:11:17;17.40;94.90
48876;DHT22;34689;51.644;5.618;2022-07-04T07:13:47;17.40;94.80
48876;DHT22;34689;51.644;5.618;2022-07-04T07:16:14;17.40;94.90
48876;DHT22;34689;51.644;5.618;2022-07-04T07:18:40;17.50;94.80
48876;DHT22;34689;51.644;5.618;2022-07-04T07:21:05;17.50;94.70
48876;DHT22;34689;51.644;5.618;2022-07-04T07:23:31;17.60;94.70
48876;DHT22;34689;51.644;5.618;2022-07-04T07:25:57;17.60;94.50
48876;DHT22;34689;51.644;5.618;2022-07-04T07:28:25;17.70;94.30
48876;DHT22;34689;51.644;5.618;2022-07-04T07:30:50;17.70;94.30
48876;DHT22;34689;51.644;5.618;2022-07-04T07:33:16;17.70;94.10
48876;DHT22;34689;51.644;5.618;2022-07-04T07:35:42;17.80;94.10
48876;DHT22;34689;51.644;5.618;2022-07-04T07:38:07;17.80;94.10
48876;DHT22;34689;51.644;5.618;2022-07-04T07:40:33;17.80;94.10
48876;DHT22;34689;51.644;5.618;2022-07-04T07:42:59;17.90;94.00
48876;DHT22;34689;51.644;5.618;2022-07-04T07:45:25;18.00;93.90
48876;DHT22;34689;51.644;5.618;2022-07-04T07:47:51;18.00;93.70
48876;DHT22;34689;51.644;5.618;2022-07-04T07:50:19;18.00;93.70
48876;DHT22;34689;51.644;5.618;2022-07-04T07:52:47;18.10;93.70
48876;DHT22;34689;51.644;5.618;2022-07-04T07:55:13;18.10;93.60
48876;DHT22;34689;51.644;5.618;2022-07-04T07:57:41;18.20;93.70
48876;DHT22;34689;51.644;5.618;2022-07-04T08:00:07;18.20;93.80
48876;DHT22;34689;51.644;5.618;2022-07-04T08:02:33;18.20;93.70
48876;DHT22;34689;51.644;5.618;2022-07-04T08:05:28;18.20;93.70
48876;DHT22;34689;51.644;5.618;2022-07-04T08:07:54;18.30;93.70
48876;DHT22;34689;51.644;5.618;2022-07-04T08:10:20;18.30;93.70
48876;DHT22;34689;51.644;5.618;2022-07-04T08:12:46;18.40;93.50
48876;DHT22;34689;51.644;5.618;2022-07-04T08:15:11;18.50;93.60
48876;DHT22;34689;51.644;5.618;2022-07-04T08:17:37;18.60;93.60
48876;DHT22;34689;51.644;5.618;2022-07-04T08:20:03;18.60;93.60
48876;DHT22;34689;51.644;5.618;2022-07-04T08:22:29;18.70;93.50
48876;DHT22;34689;51.644;5.618;2022-07-04T08:24:55;18.70;93.40
48876;DHT22;34689;51.644;5.618;2022-07-04T08:27:24;18.80;93.30
48876;DHT22;34689;51.644;5.618;2022-07-04T08:29:50;18.80;93.20
48876;DHT22;34689;51.644;5.618;2022-07-04T08:32:16;18.90;93.30
48876;DHT22;34689;51.644;5.618;2022-07-04T08:34:41;18.90;93.20
48876;DHT22;34689;51.644;5.618;2022-07-04T08:37:08;19.00;93.10
48876;DHT22;34689;51.644;5.618;2022-07-04T08:39:34;19.00;93.00
48876;DHT22;34689;51.644;5.618;2022-07-04T08:42:03;19.10;92.80
48876;DHT22;34689;51.644;5.618;2022-07-04T08:44:31;19.20;92.50
48876;DHT22;34689;51.644;5.618;2022-07-04T08:46:59;19.20;92.30
48876;DHT22;34689;51.644;5.618;2022-07-04T08:49:30;19.30;92.10
48876;DHT22;34689;51.644;5.618;2022-07-04T08:51:59;19.40;91.90
48876;DHT22;34689;51.644;5.618;2022-07-04T08:54:25;19.50;91.90
48876;DHT22;34689;51.644;5.618;2022-07-04T08:57:11;19.50;91.70
48876;DHT22;34689;51.644;5.618;2022-07-04T08:59:56;19.70;91.80
48876;DHT22;34689;51.644;5.618;2022-07-04T09:02:24;19.70;91.50
48876;DHT22;34689;51.644;5.618;2022-07-04T09:04:53;19.70;91.40
48876;DHT22;34689;51.644;5.618;2022-07-04T09:07:18;19.80;91.70
48876;DHT22;34689;51.644;5.618;2022-07-04T09:09:45;19.80;91.30
48876;DHT22;34689;51.644;5.618;2022-07-04T09:12:11;19.80;91.20
48876;DHT22;34689;51.644;5.618;2022-07-04T09:14:40;19.90;91.20
48876;DHT22;34689;51.644;5.618;2022-07-04T09:17:06;20.00;91.20
48876;DHT22;34689;51.644;5.618;2022-07-04T09:19:32;20.00;91.00
48876;DHT22;34689;51.644;5.618;2022-07-04T09:22:07;20.00;91.00
48876;DHT22;34689;51.644;5.618;2022-07-04T09:24:50;20.10;91.00
48876;DHT22;34689;51.644;5.618;2022-07-04T09:27:30;20.20;90.80
48876;DHT22;34689;51.644;5.618;2022-07-04T09:29:58;20.20;91.00
48876;DHT22;34689;51.644;5.618;2022-07-04T09:34:59;20.40;90.20
48876;DHT22;34689;51.644;5.618;2022-07-04T09:37:35;20.50;90.30
48876;DHT22;34689;51.644;5.618;2022-07-04T09:40:03;20.50;90.10
48876;DHT22;34689;51.644;5.618;2022-07-04T09:42:37;20.50;90.00
48876;DHT22;34689;51.644;5.618;2022-07-04T09:45:10;20.60;90.10
48876;DHT22;34689;51.644;5.618;2022-07-04T09:47:39;20.60;90.10
48876;DHT22;34689;51.644;5.618;2022-07-04T09:50:11;20.70;89.50
48876;DHT22;34689;51.644;5.618;2022-07-04T09:55:29;20.80;88.80
48876;DHT22;34689;51.644;5.618;2022-07-04T09:58:01;20.90;88.60
48876;DHT22;34689;51.644;5.618;2022-07-04T10:00:29;20.90;88.50
48876;DHT22;34689;51.644;5.618;2022-07-04T10:05:44;21.10;88.20
48876;DHT22;34689;51.644;5.618;2022-07-04T10:08:10;21.20;88.20
48876;DHT22;34689;51.644;5.618;2022-07-04T10:10:37;21.30;87.50
48876;DHT22;34689;51.644;5.618;2022-07-04T10:13:12;21.40;87.20
48876;DHT22;34689;51.644;5.618;2022-07-04T10:15:42;21.60;86.00
48876;DHT22;34689;51.644;5.618;2022-07-04T10:18:09;21.70;86.20
48876;DHT22;34689;51.644;5.618;2022-07-04T10:20:35;22.10;86.60
48876;DHT22;34689;51.644;5.618;2022-07-04T10:23:04;22.80;84.30
48876;DHT22;34689;51.644;5.618;2022-07-04T10:25:30;24.00;81.30
48876;DHT22;34689;51.644;5.618;2022-07-04T10:27:58;24.70;78.00
48876;DHT22;34689;51.644;5.618;2022-07-04T10:30:29;24.70;77.70
48876;DHT22;34689;51.644;5.618;2022-07-04T10:33:00;24.30;78.30
48876;DHT22;34689;51.644;5.618;2022-07-04T10:38:50;24.50;76.40
48876;DHT22;34689;51.644;5.618;2022-07-04T10:41:19;24.30;78.30
48876;DHT22;34689;51.644;5.618;2022-07-04T10:56:41;23.90;79.70
48876;DHT22;34689;51.644;5.618;2022-07-04T10:59:18;23.80;79.60
48876;DHT22;34689;51.644;5.618;2022-07-04T11:04:54;23.60;79.10
48876;DHT22;34689;51.644;5.618;2022-07-04T11:18:12;22.90;81.10
48876;DHT22;34689;51.644;5.618;2022-07-04T11:20:43;22.80;81.80
48876;DHT22;34689;51.644;5.618;2022-07-04T11:23:11;22.60;82.00
48876;DHT22;34689;51.644;5.618;2022-07-04T11:25:43;22.50;82.90
48876;DHT22;34689;51.644;5.618;2022-07-04T11:30:56;22.50;83.50
48876;DHT22;34689;51.644;5.618;2022-07-04T11:33:27;22.50;83.60
48876;DHT22;34689;51.644;5.618;2022-07-04T11:39:03;22.40;84.10
48876;DHT22;34689;51.644;5.618;2022-07-04T11:41:40;22.30;83.80
48876;DHT22;34689;51.644;5.618;2022-07-04T11:44:26;22.10;83.90
48876;DHT22;34689;51.644;5.618;2022-07-04T11:47:16;22.10;83.90
48876;DHT22;34689;51.644;5.618;2022-07-04T11:49:54;22.10;84.10
48876;DHT22;34689;51.644;5.618;2022-07-04T11:52:40;22.00;84.20
48876;DHT22;34689;51.644;5.618;2022-07-04T11:55:11;22.10;84.40
48876;DHT22;34689;51.644;5.618;2022-07-04T11:57:45;22.10;84.50
48876;DHT22;34689;51.644;5.618;2022-07-04T12:00:12;22.30;84.00
48876;DHT22;34689;51.644;5.618;2022-07-04T12:02:39;22.40;84.00
48876;DHT22;34689;51.644;5.618;2022-07-04T12:05:07;22.50;83.00
48876;DHT22;34689;51.644;5.618;2022-07-04T12:07:34;22.70;81.90
48876;DHT22;34689;51.644;5.618;2022-07-04T12:10:26;22.70;81.30
48876;DHT22;34689;51.644;5.618;2022-07-04T12:12:57;22.80;80.90
48876;DHT22;34689;51.644;5.618;2022-07-04T12:15:25;23.00;79.70
48876;DHT22;34689;51.644;5.618;2022-07-04T12:18:00;23.10;78.90
48876;DHT22;34689;51.644;5.618;2022-07-04T12:20:27;23.20;78.80
48876;DHT22;34689;51.644;5.618;2022-07-04T12:22:58;23.30;77.90
48876;DHT22;34689;51.644;5.618;2022-07-04T12:25:29;23.50;76.80
48876;DHT22;34689;51.644;5.618;2022-07-04T12:27:59;23.60;76.10
48876;DHT22;34689;51.644;5.618;2022-07-04T12:30:26;23.60;76.10
48876;DHT22;34689;51.644;5.618;2022-07-04T12:32:56;23.70;75.90
48876;DHT22;34689;51.644;5.618;2022-07-04T12:36:18;23.80;75.80
48876;DHT22;34689;51.644;5.618;2022-07-04T12:38:33;23.90;75.20
48876;DHT22;34689;51.644;5.618;2022-07-04T12:41:12;24.00;75.60
48876;DHT22;34689;51.644;5.618;2022-07-04T12:46:09;24.20;76.00
48876;DHT22;34689;51.644;5.618;2022-07-04T12:48:36;24.20;76.30
48876;DHT22;34689;51.644;5.618;2022-07-04T12:51:12;24.20;76.30
48876;DHT22;34689;51.644;5.618;2022-07-04T12:53:44;24.20;76.40
48876;DHT22;34689;51.644;5.618;2022-07-04T12:56:18;24.30;76.30
48876;DHT22;34689;51.644;5.618;2022-07-04T12:58:53;24.30;76.40
48876;DHT22;34689;51.644;5.618;2022-07-04T13:01:18;24.40;76.20
48876;DHT22;34689;51.644;5.618;2022-07-04T13:03:44;24.60;75.70
48876;DHT22;34689;51.644;5.618;2022-07-04T13:06:10;24.60;75.70
48876;DHT22;34689;51.644;5.618;2022-07-04T13:08:38;24.70;75.10
48876;DHT22;34689;51.644;5.618;2022-07-04T13:11:05;24.70;74.60
48876;DHT22;34689;51.644;5.618;2022-07-04T13:13:50;24.60;74.80
48876;DHT22;34689;51.644;5.618;2022-07-04T13:16:15;24.50;74.20
48876;DHT22;34689;51.644;5.618;2022-07-04T13:18:41;24.40;74.60
48876;DHT22;34689;51.644;5.618;2022-07-04T13:21:07;24.50;74.20
48876;DHT22;34689;51.644;5.618;2022-07-04T13:23:35;24.50;73.90
48876;DHT22;34689;51.644;5.618;2022-07-04T13:26:00;24.50;73.70
48876;DHT22;34689;51.644;5.618;2022-07-04T13:28:26;24.40;73.20
48876;DHT22;34689;51.644;5.618;2022-07-04T13:30:52;24.30;72.90
48876;DHT22;34689;51.644;5.618;2022-07-04T13:33:17;24.30;73.70
48876;DHT22;34689;51.644;5.618;2022-07-04T13:35:43;24.50;73.10
48876;DHT22;34689;51.644;5.618;2022-07-04T13:38:09;24.60;73.00
48876;DHT22;34689;51.644;5.618;2022-07-04T13:40:35;24.70;72.60
48876;DHT22;34689;51.644;5.618;2022-07-04T13:43:03;24.70;72.50
48876;DHT22;34689;51.644;5.618;2022-07-04T13:45:35;24.80;72.60
48876;DHT22;34689;51.644;5.618;2022-07-04T13:48:01;24.90;72.20
48876;DHT22;34689;51.644;5.618;2022-07-04T13:50:27;24.90;72.10
48876;DHT22;34689;51.644;5.618;2022-07-04T13:52:52;24.90;71.50
48876;DHT22;34689;51.644;5.618;2022-07-04T13:55:18;24.90;71.60
48876;DHT22;34689;51.644;5.618;2022-07-04T13:57:50;24.90;71.60
48876;DHT22;34689;51.644;5.618;2022-07-04T14:00:16;24.80;71.30
48876;DHT22;34689;51.644;5.618;2022-07-04T14:02:42;24.70;72.00
48876;DHT22;34689;51.644;5.618;2022-07-04T14:05:07;24.60;71.50
48876;DHT22;34689;51.644;5.618;2022-07-04T14:07:35;24.60;71.60
48876;DHT22;34689;51.644;5.618;2022-07-04T14:10:02;24.60;71.10
48876;DHT22;34689;51.644;5.618;2022-07-04T14:12:28;24.50;70.90
48876;DHT22;34689;51.644;5.618;2022-07-04T14:14:53;24.40;71.10
48876;DHT22;34689;51.644;5.618;2022-07-04T14:17:19;24.20;71.40
48876;DHT22;34689;51.644;5.618;2022-07-04T14:19:46;24.30;71.60
48876;DHT22;34689;51.644;5.618;2022-07-04T14:22:11;24.40;71.70
48876;DHT22;34689;51.644;5.618;2022-07-04T14:24:37;24.40;71.70
48876;DHT22;34689;51.644;5.618;2022-07-04T14:27:03;24.50;71.40
48876;DHT22;34689;51.644;5.618;2022-07-04T14:29:31;24.60;71.20
48876;DHT22;34689;51.644;5.618;2022-07-04T14:32:02;24.70;71.00
48876;DHT22;34689;51.644;5.618;2022-07-04T14:34:27;24.80;70.60
48876;DHT22;34689;51.644;5.618;2022-07-04T14:36:53;24.80;70.80
48876;DHT22;34689;51.644;5.618;2022-07-04T14:39:19;24.80;70.40
48876;DHT22;34689;51.644;5.618;2022-07-04T14:41:50;24.90;70.40
48876;DHT22;34689;51.644;5.618;2022-07-04T14:44:16;24.90;69.30
48876;DHT22;34689;51.644;5.618;2022-07-04T14:46:44;24.70;69.40
48876;DHT22;34689;51.644;5.618;2022-07-04T14:49:10;24.70;70.00
48876;DHT22;34689;51.644;5.618;2022-07-04T14:51:37;24.70;70.20
48876;DHT22;34689;51.644;5.618;2022-07-04T14:54:08;24.60;71.10
48876;DHT22;34689;51.644;5.618;2022-07-04T14:56:37;24.60;70.60
48876;DHT22;34689;51.644;5.618;2022-07-04T14:59:03;24.60;70.90
48876;DHT22;34689;51.644;5.618;2022-07-04T15:01:30;24.60;70.40
48876;DHT22;34689;51.644;5.618;2022-07-04T15:03:56;24.50;70.40
48876;DHT22;34689;51.644;5.618;2022-07-04T15:06:22;24.60;70.20
48876;DHT22;34689;51.644;5.618;2022-07-04T15:08:47;24.60;70.40
48876;DHT22;34689;51.644;5.618;2022-07-04T15:11:16;24.60;70.50
48876;DHT22;34689;51.644;5.618;2022-07-04T15:13:42;24.60;70.60
48876;DHT22;34689;51.644;5.618;2022-07-04T15:16:08;24.60;70.60
48876;DHT22;34689;51.644;5.618;2022-07-04T15:18:39;24.50;70.70
48876;DHT22;34689;51.644;5.618;2022-07-04T15:21:05;24.50;70.50
48876;DHT22;34689;51.644;5.618;2022-07-04T15:23:49;24.50;70.60
48876;DHT22;34689;51.644;5.618;2022-07-04T15:26:33;24.40;70.70
48876;DHT22;34689;51.644;5.618;2022-07-04T15:29:00;24.40;70.90
48876;DHT22;34689;51.644;5.618;2022-07-04T15:31:27;24.50;71.10
48876;DHT22;34689;51.644;5.618;2022-07-04T15:33:52;24.50;71.00
48876;DHT22;34689;51.644;5.618;2022-07-04T15:36:18;24.60;71.10
48876;DHT22;34689;51.644;5.618;2022-07-04T15:38:44;24.60;71.20
48876;DHT22;34689;51.644;5.618;2022-07-04T15:41:09;24.60;71.20
48876;DHT22;34689;51.644;5.618;2022-07-04T15:43:40;24.60;71.20
48876;DHT22;34689;51.644;5.618;2022-07-04T15:46:06;24.60;71.10
48876;DHT22;34689;51.644;5.618;2022-07-04T15:48:32;24.60;71.10
48876;DHT22;34689;51.644;5.618;2022-07-04T15:50:58;24.40;71.30
48876;DHT22;34689;51.644;5.618;2022-07-04T15:53:24;24.50;71.40
48876;DHT22;34689;51.644;5.618;2022-07-04T15:55:50;24.40;71.30
48876;DHT22;34689;51.644;5.618;2022-07-04T15:58:15;24.40;71.60
48876;DHT22;34689;51.644;5.618;2022-07-04T16:00:41;24.40;71.50
48876;DHT22;34689;51.644;5.618;2022-07-04T16:03:07;24.40;71.10
48876;DHT22;34689;51.644;5.618;2022-07-04T16:05:35;24.40;71.30
48876;DHT22;34689;51.644;5.618;2022-07-04T16:08:00;24.40;71.20
48876;DHT22;34689;51.644;5.618;2022-07-04T16:10:26;24.30;71.10
48876;DHT22;34689;51.644;5.618;2022-07-04T16:12:53;24.30;71.40
48876;DHT22;34689;51.644;5.618;2022-07-04T16:15:18;24.20;71.40
48876;DHT22;34689;51.644;5.618;2022-07-04T16:18:03;24.20;71.60
48876;DHT22;34689;51.644;5.618;2022-07-04T16:20:29;24.20;71.60